Погода Скустелена 2 недели

Подляское воеводство, Польша

19 июля-01 августа
  • 19июля
    Сегодня
    +10°
    +24°
    Практически безоблачно
    ВремяПогодаТемператураВлажностьДавлениеВетер, м/сВероятность осадков
    02:00Облачно с прояснениями+14°C89 %751 мм1.7 м/с2 %
    05:00Ясно и безоблачно+13°C94 %750 мм1.9 м/с2 %
    08:00Небольшая облачность+17°C70 %750 мм3.1 м/с6 %
    11:00Облачно с прояснениями+21°C49 %750 мм4.1 м/с3 %
    14:00Практически безоблачно+23°C44 %749 мм3.6 м/с2 %
    17:00Ясно и безоблачно+23°C45 %748 мм3.8 м/с2 %
    20:00Ясно и безоблачно+20°C57 %748 мм2.6 м/с2 %
    23:00Ясно и безоблачно+14°C82 %748 мм1.6 м/с2 %
  • 20июля
    Суббота
    +13°
    +25°
    Практически безоблачно
    ВремяПогодаТемператураВлажностьДавлениеВетер, м/сВероятность осадков
    02:00Ясно и безоблачно+12°C93 %747 мм1.2 м/с2 %
    05:00Ясно и безоблачно+11°C96 %747 мм1.3 м/с2 %
    08:00Ясно и безоблачно+16°C75 %746 мм1.9 м/с2 %
    11:00Ясно и безоблачно+21°C55 %746 мм1.9 м/с2 %
    14:00Практически безоблачно+24°C40 %745 мм2.2 м/с8 %
    17:00Небольшая облачность+25°C37 %744 мм2.7 м/с9 %
    20:00Ясно и безоблачно+22°C49 %744 мм1.8 м/с2 %
    23:00Ясно и безоблачно+16°C72 %744 мм1.4 м/с2 %
  • 21июля
    Воскресенье
    +15°
    +26°
    Небольшая облачность
    ВремяПогодаТемператураВлажностьДавлениеВетер, м/сВероятность осадков
    02:00Ясно и безоблачно+15°C89 %743 мм1.1 м/с2 %
    05:00Ясно и безоблачно+14°C93 %743 мм1.1 м/с2 %
    08:00Ясно и безоблачно+20°C63 %744 мм1.8 м/с2 %
    11:00Ясно и безоблачно+24°C43 %743 мм2.1 м/с3 %
    14:00Небольшая облачность+25°C32 %743 мм2.4 м/с10 %
    17:00Облачно с прояснениями+26°C31 %742 мм2.7 м/с7 %
    20:00Ясно и безоблачно+23°C46 %742 мм1.9 м/с2 %
    23:00Ясно и безоблачно+17°C66 %743 мм1.8 м/с2 %
  • 22июля
    Понедельник
    +16°
    +28°
    Практически безоблачно
    ВремяПогодаТемператураВлажностьДавлениеВетер, м/сВероятность осадков
    02:00Небольшая облачность+16°C80 %743 мм1.3 м/с2 %
    05:00Ясно и безоблачно+15°C85 %742 мм1.6 м/с2 %
    08:00Ясно и безоблачно+21°C60 %743 мм2.1 м/с3 %
    11:00Практически безоблачно+26°C40 %743 мм2.1 м/с4 %
    14:00Практически безоблачно+28°C36 %743 мм2.5 м/с7 %
    17:00Практически безоблачно+28°C36 %743 мм2.8 м/с13 %
    20:00Ясно и безоблачно+25°C45 %743 мм1.8 м/с8 %
    23:00Ясно и безоблачно+19°C61 %743 мм1.5 м/с2 %
  • 23июля
    Вторник
    +14°
    +28°
    Практически безоблачно
    ВремяПогодаТемператураВлажностьДавлениеВетер, м/сВероятность осадков
    02:00Облачно с прояснениями+17°C69 %744 мм1.2 м/с5 %
    05:00Облачно с прояснениями+17°C73 %744 мм1.2 м/с7 %
    08:00Облачно с прояснениями+21°C63 %745 мм2.6 м/с15 %
    11:00Ясно и безоблачно+23°C48 %745 мм2.4 м/с28 %
    14:00Практически безоблачно+26°C40 %745 мм2.7 м/с33 %
    17:00Практически безоблачно+23°C59 %745 мм2.9 м/с29 %
    20:00Практически безоблачно+21°C68 %745 мм2.6 м/с21 %
    23:00Практически безоблачно+17°C76 %745 мм2.1 м/с11 %
Мы используем cookies
Соглашаюсь